createdAt,value
2023-01-23T00:00:47.367Z,68.61
2023-01-23T00:03:13.784Z,68.89
2023-01-23T00:05:40.106Z,68.94
2023-01-23T00:08:06.468Z,69.17
2023-01-23T00:10:32.906Z,68.88
2023-01-23T00:12:59.333Z,69.03
2023-01-23T00:15:27.346Z,68.84
2023-01-23T00:17:53.828Z,69.01
2023-01-23T00:20:20.535Z,69.28
2023-01-23T00:22:47.013Z,68.93
2023-01-23T00:25:13.499Z,69.02
2023-01-23T00:27:39.883Z,69.06
2023-01-23T00:30:06.740Z,68.99
2023-01-23T00:32:33.224Z,69.02
2023-01-23T00:35:00.494Z,69.02
2023-01-23T00:37:26.821Z,69.08
2023-01-23T00:39:53.293Z,69.43
2023-01-23T00:42:19.617Z,69.31
2023-01-23T00:44:45.924Z,69.43
2023-01-23T00:47:12.926Z,69.29
2023-01-23T00:49:39.234Z,69.69
2023-01-23T00:52:05.580Z,69.95
2023-01-23T00:54:31.954Z,69.93
2023-01-23T00:56:58.356Z,70.20
2023-01-23T00:59:24.737Z,70.07
2023-01-23T01:01:51.164Z,69.85
2023-01-23T01:04:17.576Z,70.03
2023-01-23T01:06:43.950Z,70.15
2023-01-23T01:09:10.280Z,69.83
2023-01-23T01:11:36.638Z,70.14
2023-01-23T01:14:04.050Z,69.85
2023-01-23T01:16:30.699Z,69.85
2023-01-23T01:18:57.068Z,70.08
2023-01-23T01:21:23.422Z,69.94
2023-01-23T01:23:49.983Z,70.04
2023-01-23T01:26:16.374Z,69.82
2023-01-23T01:28:42.741Z,69.76
2023-01-23T01:31:12.977Z,69.75
2023-01-23T01:33:41.008Z,69.98
2023-01-23T01:36:16.751Z,69.86
2023-01-23T01:38:43.397Z,70.21
2023-01-23T01:41:10.543Z,69.43
2023-01-23T01:43:37.014Z,69.55
2023-01-23T01:46:15.831Z,69.33
2023-01-23T01:48:44.204Z,69.59
2023-01-23T01:51:20.715Z,69.83
2023-01-23T01:53:50.797Z,69.97
2023-01-23T01:56:18.955Z,69.88
2023-01-23T01:58:48.889Z,69.95
2023-01-23T02:01:15.916Z,69.60
2023-01-23T02:03:44.925Z,69.53
2023-01-23T02:06:11.769Z,69.80
2023-01-23T02:08:52.745Z,69.53
2023-01-23T02:11:19.596Z,69.93
2023-01-23T02:13:46.130Z,69.69
2023-01-23T02:16:17.801Z,69.95
2023-01-23T02:18:48.016Z,69.88
2023-01-23T02:21:17.002Z,69.64
2023-01-23T02:24:05.144Z,69.66
2023-01-23T02:26:36.660Z,69.58
2023-01-23T02:29:04.993Z,69.24
2023-01-23T02:31:31.626Z,69.15
2023-01-23T02:33:59.485Z,69.56
2023-01-23T02:36:28.891Z,69.08
2023-01-23T02:39:01.446Z,69.62
2023-01-23T02:41:30.979Z,69.01
2023-01-23T02:44:00.785Z,68.88
2023-01-23T02:46:27.309Z,68.84
2023-01-23T02:48:54.099Z,68.97
2023-01-23T02:51:22.162Z,69.07
2023-01-23T02:53:48.965Z,68.86
2023-01-23T02:56:16.219Z,68.85
2023-01-23T02:59:01.611Z,69.19
2023-01-23T03:01:28.126Z,69.16
2023-01-23T03:03:58.044Z,68.87
2023-01-23T03:06:24.503Z,69.03
2023-01-23T03:08:50.928Z,69.38
2023-01-23T03:11:18.808Z,69.03
2023-01-23T03:13:46.353Z,69.20
2023-01-23T03:16:13.036Z,68.87
2023-01-23T03:18:52.922Z,68.96
2023-01-23T03:21:21.130Z,69.33
2023-01-23T03:23:48.328Z,69.62
2023-01-23T03:26:15.422Z,69.60
2023-01-23T03:29:00.299Z,69.40
2023-01-23T03:31:26.647Z,69.36
2023-01-23T03:33:53.459Z,69.49
2023-01-23T03:36:20.981Z,69.46
2023-01-23T03:39:06.001Z,69.30
2023-01-23T03:41:32.386Z,69.36
2023-01-23T03:43:58.743Z,69.38
2023-01-23T03:46:25.177Z,69.36
2023-01-23T03:48:51.734Z,69.93
2023-01-23T03:51:18.113Z,69.44
2023-01-23T03:53:44.489Z,69.84
2023-01-23T03:56:10.916Z,69.91
2023-01-23T03:58:37.270Z,69.62
2023-01-23T04:01:08.518Z,69.77
2023-01-23T04:03:35.757Z,69.76
2023-01-23T04:06:02.292Z,69.28
2023-01-23T04:08:29.456Z,69.73
2023-01-23T04:11:04.060Z,69.21
2023-01-23T04:13:30.794Z,69.12
2023-01-23T04:15:57.255Z,68.97
2023-01-23T04:18:24.104Z,68.84
2023-01-23T04:20:50.525Z,68.69
2023-01-23T04:23:17.666Z,68.95
2023-01-23T04:25:44.339Z,68.87
2023-01-23T04:28:10.715Z,68.57
2023-01-23T04:30:37.219Z,68.55
2023-01-23T04:33:03.740Z,68.76
2023-01-23T04:35:30.409Z,68.86
2023-01-23T04:37:56.886Z,68.45
2023-01-23T04:40:23.338Z,68.30
2023-01-23T04:42:49.751Z,68.21
2023-01-23T04:45:16.393Z,68.54
2023-01-23T04:47:42.825Z,68.26
2023-01-23T04:50:09.800Z,67.98
2023-01-23T04:52:36.239Z,68.09
2023-01-23T04:55:02.643Z,67.92
2023-01-23T04:57:29.194Z,67.82
2023-01-23T04:59:55.629Z,68.07
2023-01-23T05:02:22.096Z,68.01
2023-01-23T05:04:48.596Z,67.78
2023-01-23T05:07:15.347Z,67.70
2023-01-23T05:09:42.102Z,67.57
2023-01-23T05:12:08.515Z,67.62
2023-01-23T05:14:34.978Z,67.81
2023-01-23T05:17:01.382Z,67.45
2023-01-23T05:19:27.817Z,67.43
2023-01-23T05:21:54.237Z,67.37
2023-01-23T05:24:20.669Z,67.44
2023-01-23T05:26:47.091Z,67.87
2023-01-23T05:29:13.542Z,67.73
2023-01-23T05:31:40.160Z,67.73
2023-01-23T05:34:06.572Z,68.02
2023-01-23T05:36:32.963Z,67.86
2023-01-23T05:38:59.399Z,68.18
2023-01-23T05:41:25.845Z,68.18
2023-01-23T05:43:52.271Z,68.16
2023-01-23T05:46:18.765Z,68.09
2023-01-23T05:48:49.218Z,68.23
2023-01-23T05:51:15.731Z,68.33
2023-01-23T05:53:42.210Z,68.68
2023-01-23T05:56:09.032Z,68.60
2023-01-23T05:58:35.353Z,68.69
2023-01-23T06:01:03.510Z,68.60
2023-01-23T06:03:30.005Z,68.61
2023-01-23T06:05:56.399Z,68.82
2023-01-23T06:08:23.011Z,68.61
2023-01-23T06:10:49.409Z,68.53
2023-01-23T06:13:15.910Z,68.41
2023-01-23T06:15:42.385Z,68.88
2023-01-23T06:18:09.173Z,68.57
2023-01-23T06:20:35.706Z,68.84
2023-01-23T06:23:02.177Z,68.44
2023-01-23T06:25:28.591Z,68.83
2023-01-23T06:27:55.161Z,68.29
2023-01-23T06:30:21.990Z,68.65
2023-01-23T06:32:48.618Z,68.84
2023-01-23T06:35:15.068Z,68.69
2023-01-23T06:37:41.807Z,68.75
2023-01-23T06:40:13.067Z,68.40
2023-01-23T06:42:40.708Z,68.81
2023-01-23T06:45:08.771Z,68.50
2023-01-23T06:47:35.817Z,68.81
2023-01-23T06:50:02.507Z,68.47
2023-01-23T06:52:29.727Z,68.53
2023-01-23T06:54:56.166Z,68.94
2023-01-23T06:57:23.025Z,68.71
2023-01-23T06:59:49.627Z,69.12
2023-01-23T07:02:16.401Z,68.97
2023-01-23T07:04:42.839Z,69.24
2023-01-23T07:07:09.178Z,68.89
2023-01-23T07:09:35.683Z,68.94
2023-01-23T07:12:02.018Z,69.21
2023-01-23T07:14:28.653Z,68.99
2023-01-23T07:16:55.547Z,69.23
2023-01-23T07:19:23.120Z,69.26
2023-01-23T07:21:49.533Z,68.98
2023-01-23T07:24:15.927Z,68.89
2023-01-23T07:26:42.317Z,69.04
2023-01-23T07:29:11.621Z,68.92
2023-01-23T07:31:38.172Z,69.31
2023-01-23T07:34:04.531Z,68.88
2023-01-23T07:36:31.137Z,69.06
2023-01-23T07:38:58.908Z,69.14
2023-01-23T07:41:25.666Z,69.11
2023-01-23T07:43:52.099Z,68.81
2023-01-23T07:46:18.592Z,69.24
2023-01-23T07:48:44.976Z,69.25
2023-01-23T07:51:12.088Z,68.91
2023-01-23T07:53:38.483Z,69.27
2023-01-23T07:56:06.159Z,68.74
2023-01-23T07:58:33.021Z,69.03
2023-01-23T08:01:00.012Z,69.29
2023-01-23T08:03:28.929Z,68.81
2023-01-23T08:05:55.542Z,69.04
2023-01-23T08:08:21.990Z,68.99
2023-01-23T08:10:48.333Z,69.14
2023-01-23T08:13:14.778Z,68.76
2023-01-23T08:15:41.185Z,68.88
2023-01-23T08:18:07.773Z,69.39
2023-01-23T08:20:34.292Z,69.49
2023-01-23T08:23:02.197Z,69.07
2023-01-23T08:25:28.865Z,69.04
2023-01-23T08:27:55.284Z,68.74
2023-01-23T08:30:22.168Z,69.02
2023-01-23T08:32:48.879Z,68.78
2023-01-23T08:35:15.592Z,68.93
2023-01-23T08:37:42.240Z,68.55
2023-01-23T08:40:09.607Z,68.35
2023-01-23T08:42:35.974Z,68.44
2023-01-23T08:45:02.302Z,68.07
2023-01-23T08:47:28.732Z,68.41
2023-01-23T08:49:55.079Z,68.16
2023-01-23T08:52:21.392Z,68.06
2023-01-23T08:54:47.939Z,68.19
2023-01-23T08:57:14.244Z,68.17
2023-01-23T08:59:42.473Z,68.06
2023-01-23T09:02:11.864Z,68.08
2023-01-23T09:04:38.310Z,68.48
2023-01-23T09:07:04.703Z,68.45
2023-01-23T09:09:31.156Z,68.37
2023-01-23T09:11:57.489Z,68.23
2023-01-23T09:14:23.967Z,68.42
2023-01-23T09:16:52.270Z,68.22
2023-01-23T09:19:18.736Z,67.58
2023-01-23T09:21:45.155Z,67.74
2023-01-23T09:24:11.638Z,67.40
2023-01-23T09:26:38.138Z,67.25
2023-01-23T09:29:04.549Z,67.04
2023-01-23T09:31:31.107Z,66.80
2023-01-23T09:33:57.752Z,66.71
2023-01-23T09:36:41.241Z,66.77
2023-01-23T09:39:08.719Z,66.33
2023-01-23T09:41:35.244Z,66.41
2023-01-23T09:44:36.919Z,66.80
2023-01-23T09:47:27.129Z,66.32
2023-01-23T09:50:00.524Z,66.17
2023-01-23T09:52:36.020Z,66.36
2023-01-23T09:55:02.519Z,66.13
2023-01-23T09:57:36.562Z,66.43
2023-01-23T10:00:30.066Z,66.70
2023-01-23T10:02:57.012Z,65.85
2023-01-23T10:05:40.339Z,66.67
2023-01-23T10:08:34.422Z,66.10
2023-01-23T10:11:16.082Z,66.85
2023-01-23T10:13:45.523Z,66.32
2023-01-23T10:16:15.114Z,66.71
2023-01-23T10:19:16.569Z,66.65
2023-01-23T10:21:51.764Z,66.03
2023-01-23T10:24:40.554Z,65.98
2023-01-23T10:27:38.857Z,66.00
2023-01-23T10:30:18.742Z,65.27
2023-01-23T10:32:56.220Z,65.35
2023-01-23T10:35:32.179Z,65.27
2023-01-23T10:38:13.950Z,64.91
2023-01-23T10:40:59.848Z,64.65
2023-01-23T10:43:27.207Z,64.64
2023-01-23T10:45:53.664Z,64.33
2023-01-23T10:48:32.281Z,64.63
2023-01-23T10:51:00.000Z,64.93
2023-01-23T10:53:26.575Z,65.39
2023-01-23T10:55:57.176Z,65.41
2023-01-23T10:58:33.053Z,65.45
2023-01-23T11:01:01.023Z,65.25
2023-01-23T11:03:35.672Z,65.39
2023-01-23T11:06:04.047Z,64.92
2023-01-23T11:08:38.876Z,65.31
2023-01-23T11:11:26.373Z,64.96
2023-01-23T11:14:25.254Z,64.89
2023-01-23T11:17:03.290Z,64.62
2023-01-23T11:19:32.196Z,64.35
2023-01-23T11:22:04.343Z,64.84
2023-01-23T11:24:41.020Z,64.76
2023-01-23T11:27:44.942Z,64.43
2023-01-23T11:30:29.823Z,64.30
2023-01-23T11:33:05.808Z,64.11
2023-01-23T11:35:50.745Z,63.37
2023-01-23T11:38:30.475Z,63.71
2023-01-23T11:40:57.380Z,64.06
2023-01-23T11:43:23.877Z,63.78
2023-01-23T11:45:50.201Z,63.72
2023-01-23T11:48:42.623Z,63.64
2023-01-23T11:51:18.995Z,63.46
2023-01-23T11:54:00.811Z,63.48
2023-01-23T11:56:43.814Z,63.80
2023-01-23T11:59:30.533Z,63.33
2023-01-23T12:02:21.607Z,62.97
2023-01-23T12:05:25.974Z,62.53
2023-01-23T12:08:22.103Z,62.90
2023-01-23T12:10:59.620Z,62.69
2023-01-23T12:13:44.408Z,62.97
2023-01-23T12:16:30.750Z,63.51
2023-01-23T12:19:24.814Z,63.37
2023-01-23T12:22:15.078Z,63.43
2023-01-23T12:24:51.221Z,63.42
2023-01-23T12:27:44.143Z,63.43
2023-01-23T12:30:34.172Z,63.71
2023-01-23T12:33:17.809Z,63.55
2023-01-23T12:35:56.731Z,63.17
2023-01-23T12:38:49.412Z,63.03
2023-01-23T12:41:36.285Z,63.18
2023-01-23T12:44:21.105Z,62.64
2023-01-23T12:46:53.858Z,62.67
2023-01-23T12:49:26.794Z,62.79
2023-01-23T12:52:00.868Z,62.12
2023-01-23T12:54:42.360Z,62.23
2023-01-23T12:57:10.913Z,62.25
2023-01-23T12:59:47.592Z,62.38
2023-01-23T13:02:34.274Z,62.42
2023-01-23T13:05:16.092Z,62.38
2023-01-23T13:07:50.476Z,62.67
2023-01-23T13:10:24.139Z,62.79
2023-01-23T13:12:55.925Z,62.97
2023-01-23T13:15:39.645Z,62.54
2023-01-23T13:18:22.256Z,63.00
2023-01-23T13:21:18.405Z,63.17
2023-01-23T13:23:44.865Z,63.23
2023-01-23T13:26:19.355Z,63.62
2023-01-23T13:28:51.442Z,63.50
2023-01-23T13:31:34.419Z,63.61
2023-01-23T13:34:14.903Z,63.21
2023-01-23T13:36:53.062Z,63.24
2023-01-23T13:39:23.532Z,63.83
2023-01-23T13:41:52.252Z,63.33
2023-01-23T13:44:41.626Z,63.76
2023-01-23T14:22:43.733Z,63.58
2023-01-23T14:25:17.368Z,63.48
2023-01-23T14:27:53.300Z,63.88
2023-01-23T14:30:26.686Z,63.33
2023-01-23T14:32:53.645Z,63.57
2023-01-23T14:35:33.097Z,63.97
2023-01-23T14:38:04.606Z,63.95
2023-01-23T14:40:43.112Z,63.90
2023-01-23T14:43:22.521Z,64.08
2023-01-23T14:45:57.052Z,63.87
2023-01-23T14:48:23.603Z,63.59
2023-01-23T14:50:50.244Z,63.89
2023-01-23T14:53:17.198Z,63.80
2023-01-23T14:55:49.610Z,64.18
2023-01-23T14:58:23.684Z,64.12
2023-01-23T15:00:52.137Z,63.74
2023-01-23T15:03:35.781Z,64.24
2023-01-23T15:06:05.726Z,64.13
2023-01-23T15:08:33.609Z,63.90
2023-01-23T15:11:01.734Z,64.33
2023-01-23T15:13:36.404Z,64.49
2023-01-23T15:16:06.499Z,64.44
2023-01-23T15:18:34.935Z,64.55
2023-01-23T15:21:03.682Z,64.22
2023-01-23T15:23:37.131Z,64.34
2023-01-23T15:26:24.486Z,64.78
2023-01-23T15:28:50.781Z,64.75
2023-01-23T15:31:31.251Z,64.66
2023-01-23T15:34:13.937Z,64.63
2023-01-23T15:36:59.047Z,64.39
2023-01-23T15:39:51.754Z,64.57
2023-01-23T15:42:18.042Z,64.27
2023-01-23T15:44:44.857Z,64.43
2023-01-23T15:47:11.472Z,64.44
2023-01-23T15:49:40.047Z,64.80
2023-01-23T15:52:20.385Z,64.77
2023-01-23T15:54:47.840Z,64.75
2023-01-23T15:57:14.632Z,64.51
2023-01-23T15:59:41.557Z,64.63
2023-01-23T16:02:29.085Z,64.35
2023-01-23T16:04:56.338Z,64.43
2023-01-23T16:07:31.312Z,64.59
2023-01-23T16:09:57.955Z,64.55
2023-01-23T16:12:28.800Z,64.76
2023-01-23T16:14:56.587Z,64.97
2023-01-23T16:17:23.382Z,65.06
2023-01-23T16:19:50.581Z,65.08
2023-01-23T16:22:26.701Z,65.14
2023-01-23T16:24:53.652Z,65.26
2023-01-23T16:27:27.057Z,65.25
2023-01-23T16:29:54.617Z,65.17
2023-01-23T16:32:21.116Z,65.08
2023-01-23T16:34:47.569Z,65.03
2023-01-23T16:37:16.523Z,65.45
2023-01-23T16:39:44.633Z,65.05
2023-01-23T16:42:18.570Z,65.45
2023-01-23T16:44:44.893Z,65.43
2023-01-23T16:47:11.232Z,65.00
2023-01-23T16:49:51.540Z,65.64
2023-01-23T16:52:20.565Z,65.54
2023-01-23T16:54:47.155Z,65.56
2023-01-23T16:57:20.062Z,65.79
2023-01-23T16:59:48.084Z,65.57
2023-01-23T17:02:22.097Z,65.31
2023-01-23T17:04:48.780Z,65.29
2023-01-23T17:07:17.177Z,65.39
2023-01-23T17:09:44.793Z,65.39
2023-01-23T17:12:28.207Z,65.46
2023-01-23T17:14:55.572Z,65.50
2023-01-23T17:17:49.253Z,65.10
2023-01-23T17:20:15.584Z,65.31
2023-01-23T17:22:42.739Z,65.53
2023-01-23T17:25:20.677Z,65.40
2023-01-23T17:28:00.015Z,65.35
2023-01-23T17:30:33.976Z,65.60
2023-01-23T17:33:00.387Z,65.31
2023-01-23T17:35:36.223Z,65.61
2023-01-23T17:38:03.670Z,65.75
2023-01-23T17:40:30.264Z,65.26
2023-01-23T17:42:56.987Z,65.25
2023-01-23T17:45:26.085Z,65.33
2023-01-23T17:47:55.077Z,65.14
2023-01-23T17:50:24.274Z,64.87
2023-01-23T17:52:52.079Z,65.05
2023-01-23T17:55:21.934Z,65.29
2023-01-23T17:57:49.449Z,64.94
2023-01-23T18:00:20.977Z,65.24
2023-01-23T18:03:01.292Z,65.09
2023-01-23T18:05:28.010Z,65.38
2023-01-23T18:07:54.640Z,65.37
2023-01-23T18:10:21.968Z,65.13
2023-01-23T18:13:16.436Z,65.33
2023-01-23T18:16:04.026Z,65.51
2023-01-23T18:18:35.570Z,65.52
2023-01-23T18:21:04.375Z,65.71
2023-01-23T18:23:32.574Z,65.69
2023-01-23T18:26:23.015Z,65.46
2023-01-23T18:29:06.114Z,65.65
2023-01-23T18:32:01.336Z,65.72
2023-01-23T18:34:41.740Z,65.57
2023-01-23T18:37:26.481Z,65.62
2023-01-23T18:40:29.198Z,65.55
2023-01-23T18:43:33.429Z,65.81
2023-01-23T18:45:59.971Z,65.86
2023-01-23T18:48:26.826Z,65.64
2023-01-23T18:51:03.176Z,65.92
2023-01-23T18:53:41.787Z,65.79
2023-01-23T18:56:34.381Z,65.98
2023-01-23T18:59:11.509Z,66.03
2023-01-23T19:01:52.223Z,66.01
2023-01-23T19:04:21.543Z,65.73
2023-01-23T19:06:48.245Z,66.05
2023-01-23T19:09:20.589Z,66.29
2023-01-23T19:12:02.315Z,65.81
2023-01-23T19:14:59.893Z,66.24
2023-01-23T19:17:41.258Z,66.25
2023-01-23T19:20:19.741Z,66.30
2023-01-23T19:22:52.589Z,65.86
2023-01-23T19:25:19.515Z,66.13
2023-01-23T19:27:52.583Z,65.89
2023-01-23T19:30:22.147Z,65.89
2023-01-23T19:32:49.508Z,65.79
2023-01-23T19:35:16.640Z,65.85
2023-01-23T19:37:45.042Z,66.40
2023-01-23T19:40:13.511Z,66.33
2023-01-23T19:42:52.346Z,66.29
2023-01-23T19:45:25.222Z,66.18
2023-01-23T19:47:53.306Z,66.04
2023-01-23T19:50:21.280Z,65.79
2023-01-23T19:52:48.895Z,66.00
2023-01-23T19:55:30.422Z,66.01
2023-01-23T19:57:56.945Z,65.97
2023-01-23T20:00:29.595Z,66.19
2023-01-23T20:02:56.367Z,65.86
2023-01-23T20:05:23.932Z,65.34
2023-01-23T20:07:50.698Z,65.75
2023-01-23T20:10:17.518Z,65.96
2023-01-23T20:12:52.364Z,66.01
2023-01-23T20:15:21.866Z,66.11
2023-01-23T20:17:48.594Z,65.81
2023-01-23T20:20:15.615Z,66.00
2023-01-23T20:22:43.397Z,65.96
2023-01-23T20:25:14.860Z,65.98
2023-01-23T20:27:41.907Z,66.30
2023-01-23T20:30:13.390Z,66.17
2023-01-23T20:32:40.092Z,66.26
2023-01-23T20:35:06.740Z,65.80
2023-01-23T20:37:33.171Z,66.08
2023-01-23T20:39:59.613Z,66.06
2023-01-23T20:42:26.008Z,65.82
2023-01-23T20:44:52.362Z,65.85
2023-01-23T20:47:18.839Z,65.88
2023-01-23T20:49:45.194Z,66.14
2023-01-23T20:52:29.785Z,66.05
2023-01-23T20:54:56.111Z,65.80
2023-01-23T20:57:22.464Z,66.17
2023-01-23T20:59:48.867Z,66.29
2023-01-23T21:02:24.276Z,66.29
2023-01-23T21:04:51.821Z,66.21
2023-01-23T21:07:21.180Z,66.30
2023-01-23T21:09:47.963Z,66.21
2023-01-23T21:12:14.654Z,66.01
2023-01-23T21:14:41.082Z,65.84
2023-01-23T21:17:08.861Z,65.75
2023-01-23T21:19:37.423Z,65.90
2023-01-23T21:22:05.922Z,65.97
2023-01-23T21:24:34.337Z,66.31
2023-01-23T21:27:02.538Z,65.84
2023-01-23T21:29:29.783Z,66.34
2023-01-23T21:31:57.605Z,66.08
2023-01-23T21:34:25.401Z,66.36
2023-01-23T21:36:52.084Z,66.08
2023-01-23T21:39:19.155Z,66.46
2023-01-23T21:41:45.672Z,66.08
2023-01-23T21:44:12.300Z,66.24
2023-01-23T21:46:39.050Z,66.33
2023-01-23T21:49:05.436Z,66.47
2023-01-23T21:51:32.424Z,66.40
2023-01-23T21:53:58.893Z,66.28
2023-01-23T21:56:25.567Z,66.56
2023-01-23T21:58:52.803Z,66.54
2023-01-23T22:01:41.050Z,66.47
2023-01-23T22:04:20.609Z,66.24
2023-01-23T22:06:47.048Z,66.38
2023-01-23T22:09:18.220Z,66.49
2023-01-23T22:11:45.492Z,66.53
2023-01-23T22:14:11.839Z,66.52
2023-01-23T22:16:53.826Z,66.06
2023-01-23T22:19:25.041Z,66.17
2023-01-23T22:21:55.175Z,66.39
2023-01-23T22:24:21.893Z,66.14
2023-01-23T22:26:48.453Z,66.09
2023-01-23T22:29:15.209Z,66.15
2023-01-23T22:31:41.732Z,66.48
2023-01-23T22:34:08.231Z,66.13
2023-01-23T22:36:34.737Z,66.11
2023-01-23T22:39:01.115Z,66.53
2023-01-23T22:41:28.507Z,66.34
2023-01-23T22:43:56.551Z,66.08
2023-01-23T22:46:23.655Z,66.32
2023-01-23T22:48:50.645Z,65.79
2023-01-23T22:51:24.522Z,66.16
2023-01-23T22:53:52.598Z,65.97
2023-01-23T22:56:19.511Z,65.62
2023-01-23T22:58:50.704Z,66.15
2023-01-23T23:01:17.939Z,66.19
2023-01-23T23:03:45.414Z,66.02
2023-01-23T23:06:13.986Z,66.25
2023-01-23T23:08:40.655Z,66.22
2023-01-23T23:11:18.545Z,65.90
2023-01-23T23:13:45.654Z,66.36
2023-01-23T23:16:18.326Z,65.99
2023-01-23T23:18:46.874Z,66.11
2023-01-23T23:21:15.972Z,65.99
2023-01-23T23:23:42.649Z,66.01
2023-01-23T23:26:10.348Z,66.07
2023-01-23T23:28:37.518Z,65.82
2023-01-23T23:31:04.587Z,66.08
2023-01-23T23:33:31.285Z,65.87
2023-01-23T23:35:58.025Z,65.91
2023-01-23T23:38:24.570Z,65.72
2023-01-23T23:40:57.980Z,65.52
2023-01-23T23:43:24.801Z,65.52
2023-01-23T23:45:52.410Z,65.42
2023-01-23T23:48:19.825Z,65.11
2023-01-23T23:50:47.423Z,65.05
2023-01-23T23:53:14.050Z,65.11
2023-01-23T23:55:40.370Z,65.07
2023-01-23T23:58:06.888Z,64.75
